createdAt,value
2022-11-26T00:03:12.400Z,94.90
2022-11-26T00:08:11.394Z,94.80
2022-11-26T00:13:10.473Z,94.70
2022-11-26T00:18:09.552Z,94.70
2022-11-26T00:23:08.385Z,94.80
2022-11-26T00:28:07.289Z,94.90
2022-11-26T00:33:06.425Z,94.90
2022-11-26T00:38:05.270Z,94.90
2022-11-26T00:43:04.651Z,94.90
2022-11-26T00:48:03.252Z,95.00
2022-11-26T00:53:02.280Z,95.00
2022-11-26T00:58:01.477Z,94.90
2022-11-26T01:03:00.474Z,94.90
2022-11-26T01:07:59.516Z,94.90
2022-11-26T01:12:58.498Z,94.90
2022-11-26T01:17:57.296Z,95.00
2022-11-26T01:22:56.308Z,95.10
2022-11-26T01:27:55.395Z,95.10
2022-11-26T01:32:54.633Z,95.10
2022-11-26T01:37:53.371Z,95.10
2022-11-26T01:42:52.352Z,95.10
2022-11-26T01:47:54.127Z,95.20
2022-11-26T01:52:53.448Z,95.30
2022-11-26T01:57:52.474Z,95.40
2022-11-26T02:02:51.754Z,95.50
2022-11-26T02:07:50.832Z,95.40
2022-11-26T02:12:50.464Z,95.40
2022-11-26T02:17:49.491Z,95.20
2022-11-26T02:22:48.515Z,95.20
2022-11-26T02:27:47.578Z,95.20
2022-11-26T02:32:46.386Z,95.20
2022-11-26T02:37:45.510Z,95.20
2022-11-26T02:42:44.378Z,95.20
2022-11-26T02:47:43.317Z,95.10
2022-11-26T02:52:42.499Z,95.20
2022-11-26T02:57:41.347Z,95.20
2022-11-26T03:02:40.527Z,95.20
2022-11-26T03:07:39.484Z,95.20
2022-11-26T03:12:38.440Z,95.30
2022-11-26T03:17:37.346Z,95.20
2022-11-26T03:22:36.489Z,95.30
2022-11-26T03:27:35.374Z,95.40
2022-11-26T03:32:34.491Z,95.50
2022-11-26T03:37:33.530Z,95.50
2022-11-26T03:42:32.490Z,95.50
2022-11-26T03:47:31.525Z,95.40
2022-11-26T03:52:30.541Z,95.30
2022-11-26T03:57:29.554Z,95.10
2022-11-26T04:02:28.378Z,95.10
2022-11-26T04:07:27.497Z,95.30
2022-11-26T04:12:26.418Z,95.30
2022-11-26T04:17:25.394Z,95.20
2022-11-26T04:22:24.414Z,95.20
2022-11-26T04:27:23.430Z,95.00
2022-11-26T04:32:22.446Z,95.00
2022-11-26T04:37:21.461Z,95.00
2022-11-26T04:42:20.457Z,95.10
2022-11-26T04:47:19.458Z,95.10
2022-11-26T04:52:18.488Z,95.00
2022-11-26T04:57:17.502Z,94.90
2022-11-26T05:02:16.613Z,94.90
2022-11-26T05:07:15.802Z,95.00
2022-11-26T05:12:14.550Z,95.00
2022-11-26T05:17:13.869Z,95.10
2022-11-26T05:22:12.424Z,95.10
2022-11-26T05:27:11.547Z,95.20
2022-11-26T05:32:10.626Z,95.20
2022-11-26T05:37:09.575Z,95.30
2022-11-26T05:42:09.627Z,95.40
2022-11-26T05:47:08.422Z,95.60
2022-11-26T05:52:07.434Z,95.60
2022-11-26T05:57:06.469Z,95.60
2022-11-26T06:02:05.472Z,95.60
2022-11-26T06:07:04.470Z,95.70
2022-11-26T06:12:03.459Z,95.80
2022-11-26T06:17:02.487Z,95.80
2022-11-26T06:22:01.486Z,96.00
2022-11-26T06:27:00.538Z,96.10
2022-11-26T06:31:59.541Z,96.10
2022-11-26T06:36:58.536Z,96.10
2022-11-26T06:41:57.442Z,96.20
2022-11-26T06:46:56.669Z,96.20
2022-11-26T06:51:58.620Z,96.20
2022-11-26T06:56:57.432Z,96.20
2022-11-26T07:01:56.638Z,96.20
2022-11-26T07:06:55.664Z,96.20
2022-11-26T07:11:54.474Z,96.20
2022-11-26T07:16:53.471Z,96.20
2022-11-26T07:21:52.500Z,96.20
2022-11-26T07:26:51.611Z,96.20
2022-11-26T07:31:50.685Z,96.20
2022-11-26T07:36:49.672Z,96.20
2022-11-26T07:41:48.569Z,96.30
2022-11-26T07:46:47.545Z,96.30
2022-11-26T07:51:46.482Z,96.30
2022-11-26T07:56:45.600Z,96.30
2022-11-26T08:01:44.686Z,96.40
2022-11-26T08:06:43.604Z,96.40
2022-11-26T08:11:42.713Z,96.50
2022-11-26T08:16:41.762Z,96.50
2022-11-26T08:21:40.469Z,96.40
2022-11-26T08:26:43.890Z,96.40
2022-11-26T08:31:45.186Z,96.50
2022-11-26T08:36:41.540Z,96.50
2022-11-26T08:41:40.474Z,96.60
2022-11-26T08:46:39.706Z,96.60
2022-11-26T08:51:41.530Z,96.60
2022-11-26T08:56:40.729Z,96.70
2022-11-26T09:01:39.900Z,96.60
2022-11-26T09:06:40.376Z,96.60
2022-11-26T09:11:39.502Z,96.70
2022-11-26T09:16:38.605Z,96.70
2022-11-26T09:21:37.504Z,96.70
2022-11-26T09:26:36.573Z,96.70
2022-11-26T09:31:35.538Z,96.70
2022-11-26T09:36:34.602Z,96.50
2022-11-26T09:41:33.517Z,96.70
2022-11-26T09:46:40.934Z,96.70
2022-11-26T09:51:33.511Z,96.60
2022-11-26T09:56:32.963Z,96.60
2022-11-26T10:01:31.630Z,96.40
2022-11-26T10:06:30.724Z,96.40
2022-11-26T10:11:29.728Z,96.20
2022-11-26T10:16:28.793Z,95.60
2022-11-26T10:21:51.726Z,95.60
2022-11-26T10:26:28.628Z,95.30
2022-11-26T10:31:27.622Z,95.40
2022-11-26T10:36:26.751Z,95.00
2022-11-26T10:41:25.849Z,95.20
2022-11-26T10:46:24.716Z,95.00
2022-11-26T10:51:26.741Z,94.90
2022-11-26T10:56:25.789Z,94.60
2022-11-26T11:01:25.115Z,94.70
2022-11-26T11:06:24.149Z,94.20
2022-11-26T11:11:22.545Z,93.90
2022-11-26T11:16:21.854Z,93.90
2022-11-26T11:21:21.977Z,93.90
2022-11-26T11:26:21.408Z,93.60
2022-11-26T11:31:20.754Z,93.80
2022-11-26T11:36:19.662Z,93.30
2022-11-26T11:41:18.577Z,93.30
2022-11-26T11:46:17.740Z,93.10
2022-11-26T11:51:16.621Z,92.90
2022-11-26T11:56:15.730Z,92.70
2022-11-26T12:01:14.625Z,92.70
2022-11-26T12:06:13.771Z,92.80
2022-11-26T12:11:12.900Z,92.40
2022-11-26T12:16:11.825Z,92.20
2022-11-26T12:21:11.298Z,92.40
2022-11-26T12:26:10.795Z,92.30
2022-11-26T12:31:09.742Z,92.30
2022-11-26T12:36:08.686Z,92.20
2022-11-26T12:41:07.671Z,91.90
2022-11-26T12:46:06.706Z,91.90
2022-11-26T12:51:05.678Z,91.80
2022-11-26T12:56:04.686Z,91.50
2022-11-26T13:01:03.853Z,91.30
2022-11-26T13:06:02.736Z,91.40
2022-11-26T13:11:04.782Z,91.20
2022-11-26T13:16:02.986Z,91.30
2022-11-26T13:21:01.699Z,91.20
2022-11-26T13:26:00.691Z,91.10
2022-11-26T13:30:59.658Z,91.30
2022-11-26T13:35:58.939Z,91.00
2022-11-26T13:40:59.039Z,91.00
2022-11-26T13:45:57.681Z,90.90
2022-11-26T13:50:57.837Z,90.70
2022-11-26T13:55:56.699Z,90.50
2022-11-26T14:00:55.724Z,90.70
2022-11-26T14:05:56.654Z,90.80
2022-11-26T14:10:55.799Z,90.80
2022-11-26T14:15:54.695Z,90.60
2022-11-26T14:20:53.826Z,90.60
2022-11-26T14:25:52.851Z,90.40
2022-11-26T14:30:51.955Z,90.30
2022-11-26T14:35:50.845Z,90.30
2022-11-26T14:40:49.882Z,90.40
2022-11-26T14:45:48.802Z,90.40
2022-11-26T14:50:47.682Z,90.50
2022-11-26T14:55:46.811Z,90.60
2022-11-26T15:00:45.712Z,90.70
2022-11-26T15:05:45.290Z,90.70
2022-11-26T15:10:44.743Z,90.80
2022-11-26T15:15:43.834Z,90.70
2022-11-26T15:20:42.775Z,90.90
2022-11-26T15:25:41.622Z,91.00
2022-11-26T15:30:40.842Z,91.00
2022-11-26T15:35:39.917Z,91.20
2022-11-26T15:40:38.820Z,91.20
2022-11-26T15:45:38.002Z,91.30
2022-11-26T15:50:38.262Z,91.80
2022-11-26T15:55:36.896Z,91.90
2022-11-26T16:00:35.885Z,92.00
2022-11-26T16:05:34.882Z,92.00
2022-11-26T16:10:35.233Z,92.10
2022-11-26T16:15:33.946Z,92.10
2022-11-26T16:20:32.747Z,92.20
2022-11-26T16:25:32.795Z,92.20
2022-11-26T16:30:33.128Z,92.30
2022-11-26T16:35:47.233Z,92.40
2022-11-26T16:40:33.947Z,92.40
2022-11-26T16:45:32.937Z,92.60
2022-11-26T16:50:32.383Z,92.60
2022-11-26T16:55:31.758Z,92.60
2022-11-26T17:00:31.295Z,92.70
2022-11-26T17:05:30.814Z,92.60
2022-11-26T17:10:29.892Z,92.70
2022-11-26T17:15:28.839Z,92.70
2022-11-26T17:20:27.882Z,92.80
2022-11-26T17:25:26.837Z,92.70
2022-11-26T17:30:25.976Z,92.80
2022-11-26T17:35:24.901Z,92.80
2022-11-26T17:40:23.984Z,92.80
2022-11-26T17:45:22.898Z,92.80
2022-11-26T17:50:21.897Z,92.90
2022-11-26T17:55:20.961Z,92.90
2022-11-26T18:00:19.830Z,92.90
2022-11-26T18:05:19.046Z,92.90
2022-11-26T18:10:17.857Z,93.00
2022-11-26T18:15:17.025Z,93.00
2022-11-26T18:20:17.690Z,93.00
2022-11-26T18:25:16.837Z,93.10
2022-11-26T18:30:15.874Z,93.10
2022-11-26T18:35:14.878Z,93.10
2022-11-26T18:40:13.861Z,93.20
2022-11-26T18:45:12.873Z,93.20
2022-11-26T18:50:13.563Z,93.20
2022-11-26T18:55:12.963Z,93.20
2022-11-26T19:00:11.792Z,93.30
2022-11-26T19:05:11.852Z,93.30
2022-11-26T19:10:10.998Z,93.30
2022-11-26T19:15:09.801Z,93.40
2022-11-26T19:20:08.800Z,93.30
2022-11-26T19:25:07.821Z,93.30
2022-11-26T19:30:06.865Z,93.30
2022-11-26T19:35:06.382Z,93.40
2022-11-26T19:40:05.891Z,93.40
2022-11-26T19:45:04.839Z,93.40
2022-11-26T19:50:03.878Z,93.40
2022-11-26T19:55:03.849Z,93.40
2022-11-26T20:00:04.729Z,93.50
2022-11-26T20:05:03.806Z,93.40
2022-11-26T20:10:03.119Z,93.40
2022-11-26T20:15:01.858Z,93.40
2022-11-26T20:20:00.926Z,93.40
2022-11-26T20:24:59.839Z,93.40
2022-11-26T20:29:59.168Z,93.40
2022-11-26T20:34:58.002Z,93.50
2022-11-26T20:39:56.869Z,93.60
2022-11-26T20:44:55.923Z,93.60
2022-11-26T20:49:55.569Z,93.70
2022-11-26T20:54:54.949Z,93.70
2022-11-26T20:59:53.857Z,93.70
2022-11-26T21:04:52.878Z,93.70
2022-11-26T21:09:52.295Z,93.80
2022-11-26T21:14:50.852Z,93.80
2022-11-26T21:19:49.897Z,93.90
2022-11-26T21:24:49.117Z,93.90
2022-11-26T21:29:47.928Z,94.00
2022-11-26T21:34:46.910Z,94.00
2022-11-26T21:39:46.975Z,94.00
2022-11-26T21:44:45.918Z,93.90
2022-11-26T21:49:44.877Z,94.00
2022-11-26T21:54:43.896Z,94.00
2022-11-26T21:59:42.909Z,94.00
2022-11-26T22:04:42.030Z,93.90
2022-11-26T22:09:41.080Z,94.00
2022-11-26T22:14:39.959Z,94.10
2022-11-26T22:19:39.210Z,94.00
2022-11-26T22:24:37.977Z,94.10
2022-11-26T22:29:37.202Z,94.10
2022-11-26T22:34:36.005Z,94.10
2022-11-26T22:39:35.008Z,94.00
2022-11-26T22:44:34.039Z,94.00
2022-11-26T22:49:33.038Z,94.00
2022-11-26T22:54:32.058Z,94.00
2022-11-26T22:59:31.125Z,94.00
2022-11-26T23:04:30.135Z,94.10
2022-11-26T23:09:29.075Z,94.10
2022-11-26T23:14:27.891Z,94.10
2022-11-26T23:19:27.107Z,94.10
2022-11-26T23:24:26.883Z,94.10
2022-11-26T23:29:25.943Z,94.20
2022-11-26T23:34:24.999Z,94.20
2022-11-26T23:39:24.129Z,94.20
2022-11-26T23:44:22.984Z,94.10
2022-11-26T23:49:22.391Z,94.20
2022-11-26T23:54:21.011Z,94.20
2022-11-26T23:59:20.066Z,94.20
